Time;durP1;ratioP1;P1;durP2;ratioP2;P2;SDS_P1;SDS_P2;PMS_P1;PMS_P2;Temp;Humidity;BMP_temperature;BMP_pressure;BME280_temperature;BME280_humidity;BME280_pressure;Samples;Min_cycle;Max_cycle;Signal;HPM_P1;HPM_P2
2020/12/12 00:02:14;;;;;;;1.23;1.23;;;6.60;99.90;;;;;;5016485;28;20219;-81
2020/12/12 00:04:41;;;;;;;1.20;1.10;;;6.50;99.90;;;;;;5016433;28;20169;-81
2020/12/12 00:07:07;;;;;;;2.73;1.70;;;6.50;99.90;;;;;;5016405;28;20634;-81
2020/12/12 00:09:32;;;;;;;0.30;0.30;;;6.50;99.90;;;;;;5015044;28;20195;-82
2020/12/12 00:11:58;;;;;;;0.87;0.87;;;6.50;99.90;;;;;;5015097;28;20183;-82
2020/12/12 00:14:24;;;;;;;0.63;0.63;;;6.50;99.90;;;;;;5015033;28;20625;-81
2020/12/12 00:16:53;;;;;;;0.20;0.20;;;6.50;99.90;;;;;;5015020;28;20227;-82
2020/12/12 00:19:19;;;;;;;1.33;1.23;;;6.50;99.90;;;;;;5014709;28;20764;-82
2020/12/12 00:21:52;;;;;;;0.90;0.90;;;6.60;99.90;;;;;;5016091;28;20256;-82
2020/12/12 00:24:18;;;;;;;3.90;1.70;;;6.60;99.90;;;;;;5016493;28;20182;-82
2020/12/12 00:26:44;;;;;;;0.63;0.63;;;6.60;99.90;;;;;;5016111;28;20170;-82
2020/12/12 00:29:12;;;;;;;0.27;0.27;;;6.60;99.90;;;;;;5014706;28;20252;-82
2020/12/12 00:31:39;;;;;;;1.13;1.03;;;6.60;99.90;;;;;;5015955;28;20174;-82
2020/12/12 00:34:04;;;;;;;3.17;0.83;;;6.60;99.90;;;;;;5014653;28;20190;-82
2020/12/12 00:36:30;;;;;;;0.30;0.30;;;6.60;99.90;;;;;;5014596;28;20182;-82
2020/12/12 00:38:55;;;;;;;1.57;1.47;;;6.70;99.90;;;;;;5015958;28;20553;-81
2020/12/12 00:41:21;;;;;;;1.47;1.47;;;6.70;99.90;;;;;;5015914;28;20201;-81
2020/12/12 00:43:46;;;;;;;0.60;0.60;;;6.70;99.90;;;;;;5015684;28;20164;-81
2020/12/12 00:46:12;;;;;;;1.17;1.17;;;6.70;99.90;;;;;;5014466;28;20224;-82
2020/12/12 00:48:37;;;;;;;1.40;1.30;;;6.70;99.90;;;;;;5014273;28;20642;-82
2020/12/12 00:51:03;;;;;;;1.87;1.00;;;6.70;99.90;;;;;;5015427;28;20173;-82
2020/12/12 00:53:28;;;;;;;1.60;1.50;;;6.70;99.90;;;;;;5015499;28;20173;-82
2020/12/12 00:55:55;;;;;;;1.50;1.40;;;6.80;99.90;;;;;;5015479;28;20174;-82
2020/12/12 00:58:21;;;;;;;0.67;0.57;;;6.80;99.90;;;;;;5015466;28;20663;-82
2020/12/12 01:00:46;;;;;;;1.70;1.60;;;6.90;99.90;;;;;;5013990;28;20203;-81
2020/12/12 01:03:12;;;;;;;0.40;0.40;;;6.90;99.90;;;;;;5015315;28;20515;-81
2020/12/12 01:05:37;;;;;;;1.60;1.50;;;6.90;99.90;;;;;;5014065;28;20171;-81
2020/12/12 01:08:03;;;;;;;0.67;0.67;;;6.90;99.90;;;;;;5013950;28;20170;-82
2020/12/12 01:10:29;;;;;;;0.77;0.77;;;6.80;99.90;;;;;;5013857;28;20193;-82
2020/12/12 01:12:55;;;;;;;1.20;1.20;;;6.80;99.90;;;;;;5015484;28;20171;-82
2020/12/12 01:15:21;;;;;;;2.07;0.83;;;6.80;99.90;;;;;;5013843;28;20181;-82
2020/12/12 01:17:46;;;;;;;2.53;1.77;;;6.80;99.90;;;;;;5015052;28;20599;-82
2020/12/12 01:20:12;;;;;;;0.40;0.40;;;6.80;99.90;;;;;;5014822;28;20204;-81
2020/12/12 01:22:38;;;;;;;1.23;0.87;;;6.70;99.90;;;;;;5013705;28;20168;-82
2020/12/12 01:25:04;;;;;;;2.23;2.03;;;6.80;99.90;;;;;;5013704;28;20195;-82
2020/12/12 01:27:30;;;;;;;0.60;0.60;;;6.80;99.90;;;;;;5013661;28;20249;-82
2020/12/12 01:29:55;;;;;;;0.50;0.50;;;6.80;99.90;;;;;;5014899;28;20197;-82
2020/12/12 01:32:21;;;;;;;2.50;1.57;;;6.80;99.90;;;;;;5014848;28;20176;-81
2020/12/12 01:34:47;;;;;;;1.53;1.43;;;6.90;99.90;;;;;;5014799;28;20190;-81
2020/12/12 01:37:12;;;;;;;1.37;1.27;;;6.90;99.90;;;;;;5014673;28;20252;-82
2020/12/12 01:39:38;;;;;;;0.50;0.50;;;6.90;99.90;;;;;;5014553;28;20197;-81
2020/12/12 01:42:03;;;;;;;0.37;0.37;;;6.90;99.90;;;;;;5013384;28;20223;-82
2020/12/12 01:44:29;;;;;;;2.50;2.30;;;6.90;99.90;;;;;;5014616;28;20168;-81
2020/12/12 01:46:57;;;;;;;1.67;1.17;;;7.00;99.90;;;;;;5013285;28;20180;-81
2020/12/12 01:49:22;;;;;;;2.17;1.40;;;6.90;99.90;;;;;;5013211;28;20211;-82
2020/12/12 01:51:48;;;;;;;1.53;0.93;;;6.90;99.90;;;;;;5014444;28;20529;-82
2020/12/12 01:54:14;;;;;;;0.40;0.40;;;7.00;99.90;;;;;;5014496;28;20174;-82
2020/12/12 01:56:41;;;;;;;1.27;1.17;;;7.00;99.90;;;;;;5014355;28;20165;-82
2020/12/12 01:59:06;;;;;;;1.27;1.27;;;7.00;99.90;;;;;;5013072;28;20201;-82
2020/12/12 02:01:38;;;;;;;1.40;0.80;;;7.00;99.90;;;;;;5014162;28;20197;-82
2020/12/12 02:04:05;;;;;;;0.47;0.47;;;6.90;99.90;;;;;;5014224;28;20158;-81
2020/12/12 02:06:31;;;;;;;1.03;1.03;;;6.90;99.90;;;;;;5014526;28;20172;-82
2020/12/12 02:08:57;;;;;;;1.07;1.07;;;6.90;99.90;;;;;;5014124;28;20198;-81
2020/12/12 02:11:22;;;;;;;1.40;1.33;;;6.90;99.90;;;;;;5014153;28;20171;-81
2020/12/12 02:13:48;;;;;;;2.20;1.47;;;7.00;99.90;;;;;;5014345;28;20244;-82
2020/12/12 02:16:15;;;;;;;1.10;1.00;;;7.00;99.90;;;;;;5012799;28;20175;-82
2020/12/12 02:18:41;;;;;;;0.60;0.60;;;7.00;99.90;;;;;;5013842;28;20186;-82
2020/12/12 02:21:07;;;;;;;0.70;0.70;;;7.00;99.90;;;;;;5014236;28;20198;-81
2020/12/12 02:23:34;;;;;;;0.47;0.47;;;7.00;99.90;;;;;;5014030;28;20179;-81
2020/12/12 02:25:59;;;;;;;1.30;1.20;;;7.00;99.90;;;;;;5013934;28;20162;-81
2020/12/12 02:28:39;;;;;;;1.50;1.40;;;7.00;99.90;;;;;;5013896;28;20179;-81
2020/12/12 02:31:04;;;;;;;0.90;0.90;;;7.00;99.90;;;;;;5014485;28;20153;-81
2020/12/12 02:33:30;;;;;;;0.40;0.40;;;7.00;99.90;;;;;;5014396;28;20169;-82
2020/12/12 02:35:57;;;;;;;1.37;1.30;;;7.00;99.90;;;;;;5013771;28;20187;-82
2020/12/12 02:38:23;;;;;;;1.67;1.57;;;7.00;99.90;;;;;;5013734;28;20206;-82
2020/12/12 02:40:49;;;;;;;1.13;1.13;;;7.00;99.90;;;;;;5012368;28;20260;-82
2020/12/12 02:43:14;;;;;;;0.90;0.90;;;7.10;99.90;;;;;;5012462;28;20173;-83
2020/12/12 02:45:44;;;;;;;2.17;1.97;;;7.00;99.90;;;;;;5012468;28;20270;-83
2020/12/12 02:48:10;;;;;;;0.40;0.40;;;7.10;99.90;;;;;;5012461;28;20185;-83
2020/12/12 02:50:35;;;;;;;1.10;1.00;;;7.10;99.90;;;;;;5012386;28;20287;-82
2020/12/12 02:53:01;;;;;;;1.07;1.07;;;7.10;99.90;;;;;;5013901;28;20168;-82
2020/12/12 02:55:27;;;;;;;0.40;0.40;;;7.10;99.90;;;;;;5013863;28;20185;-82
2020/12/12 02:57:52;;;;;;;2.23;2.07;;;7.00;99.90;;;;;;5012317;28;20518;-83
2020/12/12 03:00:21;;;;;;;1.20;1.17;;;7.10;99.90;;;;;;5012132;28;20215;-82
2020/12/12 03:02:46;;;;;;;1.67;1.57;;;7.10;99.90;;;;;;5012345;28;20179;-83
2020/12/12 03:05:13;;;;;;;0.80;0.70;;;7.10;99.90;;;;;;5013541;28;20176;-83
2020/12/12 03:07:38;;;;;;;2.53;1.83;;;7.10;99.90;;;;;;5012255;28;20223;-83
2020/12/12 03:10:06;;;;;;;0.80;0.77;;;7.10;99.90;;;;;;5013410;28;20195;-82
2020/12/12 03:12:36;;;;;;;0.73;0.73;;;7.10;99.90;;;;;;5013414;28;20641;-83
2020/12/12 03:15:07;;;;;;;1.97;1.80;;;7.10;99.90;;;;;;5013901;28;20178;-83
2020/12/12 03:17:33;;;;;;;6.53;0.50;;;7.10;99.90;;;;;;5016086;28;20660;-83
2020/12/12 03:19:59;;;;;;;0.73;0.73;;;7.10;99.90;;;;;;5015933;28;20210;-82
2020/12/12 03:22:24;;;;;;;1.63;1.53;;;7.10;99.90;;;;;;5016028;28;20182;-83
2020/12/12 03:24:50;;;;;;;0.83;0.83;;;7.20;99.90;;;;;;5016054;28;20173;-83
2020/12/12 03:27:16;;;;;;;0.67;0.67;;;7.20;99.90;;;;;;5015869;28;20199;-83
2020/12/12 03:29:41;;;;;;;1.23;1.23;;;7.20;99.90;;;;;;5015840;28;20200;-82
2020/12/12 03:32:09;;;;;;;0.83;0.83;;;7.20;99.90;;;;;;5015851;28;20207;-83
2020/12/12 03:34:35;;;;;;;0.97;0.93;;;7.20;99.90;;;;;;5016339;28;20184;-83
2020/12/12 03:37:02;;;;;;;2.00;1.67;;;7.20;99.90;;;;;;5016995;28;20179;-83
2020/12/12 03:39:27;;;;;;;2.20;1.50;;;7.20;99.90;;;;;;5016836;28;20604;-82
2020/12/12 03:41:53;;;;;;;0.73;0.73;;;7.20;99.90;;;;;;5017024;28;20175;-83
2020/12/12 03:44:18;;;;;;;2.57;2.37;;;7.20;99.90;;;;;;5015617;28;20180;-83
2020/12/12 03:46:44;;;;;;;0.80;0.77;;;7.20;99.90;;;;;;5016872;28;20245;-83
2020/12/12 03:49:09;;;;;;;1.27;1.27;;;7.20;99.90;;;;;;5016687;28;20287;-82
2020/12/12 03:51:35;;;;;;;0.20;0.20;;;7.20;99.90;;;;;;5016737;28;20177;-82
2020/12/12 03:54:00;;;;;;;0.57;0.57;;;7.20;99.90;;;;;;5015462;28;20205;-82
2020/12/12 03:56:26;;;;;;;1.70;1.60;;;7.20;99.90;;;;;;5016893;28;20646;-82
2020/12/12 03:58:51;;;;;;;0.33;0.33;;;7.20;99.90;;;;;;5016536;28;20549;-82
2020/12/12 04:01:17;;;;;;;1.70;1.57;;;7.20;99.90;;;;;;5015228;28;20665;-83
2020/12/12 04:03:42;;;;;;;0.93;0.93;;;7.20;99.90;;;;;;5015295;28;20175;-83
2020/12/12 04:06:08;;;;;;;1.37;1.30;;;7.20;99.90;;;;;;5016440;28;20169;-83
2020/12/12 04:08:34;;;;;;;0.57;0.57;;;7.20;99.90;;;;;;5015029;28;20180;-82
2020/12/12 04:11:03;;;;;;;0.90;0.90;;;7.20;99.90;;;;;;5015180;28;20540;-83
2020/12/12 04:13:29;;;;;;;1.13;1.13;;;7.30;99.90;;;;;;5016290;28;20191;-83
2020/12/12 04:15:55;;;;;;;0.53;0.47;;;7.20;99.90;;;;;;5016327;28;20538;-83
2020/12/12 04:18:21;;;;;;;2.33;2.17;;;7.20;99.90;;;;;;5015026;28;20180;-82
2020/12/12 04:20:47;;;;;;;1.27;1.27;;;7.30;99.90;;;;;;5014694;28;20612;-82
2020/12/12 04:23:12;;;;;;;0.60;0.60;;;7.30;99.90;;;;;;5014974;28;20171;-83
2020/12/12 04:25:38;;;;;;;0.40;0.40;;;7.30;99.90;;;;;;5014344;28;20172;-82
2020/12/12 04:28:04;;;;;;;0.53;0.53;;;7.30;99.90;;;;;;5016049;28;20189;-83
2020/12/12 04:30:29;;;;;;;0.30;0.30;;;7.30;99.90;;;;;;5014727;28;20197;-83
2020/12/12 04:32:55;;;;;;;2.50;1.60;;;7.30;99.90;;;;;;5014637;28;20583;-83
2020/12/12 04:35:20;;;;;;;0.43;0.43;;;7.30;99.90;;;;;;5014728;28;20173;-82
2020/12/12 04:37:46;;;;;;;2.70;1.13;;;7.30;99.90;;;;;;5015876;28;20174;-83
2020/12/12 04:40:13;;;;;;;0.73;0.73;;;7.30;99.90;;;;;;5016010;28;20203;-82
2020/12/12 04:42:42;;;;;;;1.57;1.47;;;7.20;99.90;;;;;;5014520;28;20219;-82
2020/12/12 04:45:12;;;;;;;1.60;1.50;;;7.20;99.90;;;;;;5014510;28;20176;-83
2020/12/12 04:47:43;;;;;;;0.93;0.63;;;7.20;99.90;;;;;;5015699;28;20163;-83
2020/12/12 04:50:10;;;;;;;1.87;1.50;;;7.20;99.90;;;;;;5014327;28;20193;-82
2020/12/12 04:52:41;;;;;;;1.57;1.30;;;7.30;99.90;;;;;;5014314;28;20208;-82
2020/12/12 04:55:07;;;;;;;0.20;0.20;;;7.30;99.90;;;;;;5015584;28;20150;-82
2020/12/12 04:57:39;;;;;;;0.87;0.87;;;7.30;99.90;;;;;;5014284;28;20180;-83
2020/12/12 05:00:10;;;;;;;1.13;1.10;;;7.30;99.90;;;;;;5014076;28;20210;-83
2020/12/12 05:02:36;;;;;;;0.53;0.53;;;7.30;99.90;;;;;;5014155;28;20172;-83
2020/12/12 05:05:04;;;;;;;0.47;0.47;;;7.40;99.90;;;;;;5014136;28;20170;-83
2020/12/12 05:07:29;;;;;;;1.23;1.13;;;7.30;99.90;;;;;;5015591;28;20717;-83
2020/12/12 05:09:55;;;;;;;1.33;1.23;;;7.40;99.90;;;;;;5015203;28;20312;-82
2020/12/12 05:12:21;;;;;;;0.87;0.87;;;7.40;99.90;;;;;;5013976;28;20225;-82
2020/12/12 05:14:49;;;;;;;1.40;1.30;;;7.40;99.90;;;;;;5015222;28;20169;-82
2020/12/12 05:17:14;;;;;;;0.93;0.93;;;7.40;99.90;;;;;;5013935;28;20203;-83
2020/12/12 05:19:40;;;;;;;2.23;1.57;;;7.40;99.90;;;;;;5013523;28;20704;-82
2020/12/12 05:22:06;;;;;;;0.73;0.73;;;7.40;99.90;;;;;;5015085;28;20196;-82
2020/12/12 05:24:32;;;;;;;0.47;0.47;;;7.40;99.90;;;;;;5014956;28;20179;-82
2020/12/12 05:27:01;;;;;;;0.80;0.80;;;7.40;99.90;;;;;;5013740;28;20178;-83
2020/12/12 05:29:27;;;;;;;1.33;1.23;;;7.40;99.90;;;;;;5013663;28;20801;-82
2020/12/12 05:31:56;;;;;;;0.27;0.27;;;7.50;99.90;;;;;;5013708;28;20208;-83
2020/12/12 05:34:22;;;;;;;1.80;1.43;;;7.40;99.90;;;;;;5014859;28;20170;-82
2020/12/12 05:36:48;;;;;;;0.73;0.73;;;7.40;99.90;;;;;;5012901;28;20179;-83
2020/12/12 05:39:14;;;;;;;1.43;1.13;;;7.40;99.90;;;;;;5014556;28;20278;-82
2020/12/12 05:41:42;;;;;;;0.63;0.63;;;7.40;99.90;;;;;;5013413;28;20538;-82
2020/12/12 05:44:08;;;;;;;1.23;1.10;;;7.50;99.90;;;;;;5014939;28;20653;-82
2020/12/12 05:46:35;;;;;;;0.90;0.90;;;7.50;99.90;;;;;;5013432;28;20196;-82
2020/12/12 05:49:02;;;;;;;0.97;0.83;;;7.50;99.90;;;;;;5013247;28;20196;-82
2020/12/12 05:51:29;;;;;;;1.60;1.30;;;7.50;99.90;;;;;;5013281;28;20206;-83
2020/12/12 05:53:56;;;;;;;1.17;1.07;;;7.50;99.90;;;;;;5014506;28;20190;-83
2020/12/12 05:56:23;;;;;;;2.03;1.93;;;7.50;99.90;;;;;;5013276;28;20217;-83
2020/12/12 05:58:54;;;;;;;1.27;1.17;;;7.50;99.90;;;;;;5014300;28;20199;-82
2020/12/12 06:01:25;;;;;;;0.30;0.30;;;7.50;99.90;;;;;;5013076;28;20199;-83
2020/12/12 06:04:00;;;;;;;1.73;1.27;;;7.50;99.90;;;;;;5013042;28;20518;-83
2020/12/12 06:06:26;;;;;;;0.60;0.53;;;7.50;99.90;;;;;;5013053;28;20164;-83
2020/12/12 06:09:08;;;;;;;2.03;1.90;;;7.50;99.90;;;;;;5012888;28;20561;-82
2020/12/12 06:11:39;;;;;;;1.03;0.93;;;7.50;99.90;;;;;;5014197;28;20176;-83
2020/12/12 06:14:05;;;;;;;0.40;0.40;;;7.50;99.90;;;;;;5014422;28;20616;-79
2020/12/12 06:16:32;;;;;;;1.00;1.00;;;7.50;99.90;;;;;;5014241;28;20182;-79
2020/12/12 06:19:21;;;;;;;0.43;0.43;;;7.50;99.90;;;;;;5015116;28;20554;-79
2020/12/12 06:21:50;;;;;;;1.33;0.63;;;7.50;99.90;;;;;;5015711;28;20184;-79
2020/12/12 06:24:18;;;;;;;1.20;1.10;;;7.50;99.90;;;;;;5015389;28;20172;-79
2020/12/12 06:27:01;;;;;;;1.33;1.23;;;7.50;99.90;;;;;;5014039;28;20178;-79
2020/12/12 06:29:30;;;;;;;1.17;1.17;;;7.50;99.90;;;;;;5015673;28;20199;-79
2020/12/12 06:31:56;;;;;;;2.30;1.63;;;7.50;99.90;;;;;;5015220;28;20186;-79
2020/12/12 06:34:40;;;;;;;1.30;1.20;;;7.50;99.90;;;;;;5014892;28;20174;-79
2020/12/12 06:37:06;;;;;;;2.13;2.03;;;7.50;99.90;;;;;;5013495;28;20181;-79
2020/12/12 06:39:42;;;;;;;0.63;0.63;;;7.50;99.90;;;;;;5015150;28;20291;-79
2020/12/12 06:42:26;;;;;;;0.90;0.83;;;7.50;99.90;;;;;;5015325;28;20164;-79
2020/12/12 06:44:52;;;;;;;0.93;0.87;;;7.60;99.90;;;;;;5013986;28;20597;-79
2020/12/12 06:47:37;;;;;;;0.67;0.67;;;7.50;99.90;;;;;;5014637;28;20205;-79
2020/12/12 06:50:11;;;;;;;0.37;0.37;;;7.50;99.90;;;;;;5014765;28;20260;-79
2020/12/12 06:52:37;;;;;;;0.57;0.57;;;7.50;99.90;;;;;;5014933;28;20176;-79
2020/12/12 06:55:06;;;;;;;0.63;0.63;;;7.50;99.90;;;;;;5014745;28;20242;-79
2020/12/12 06:57:39;;;;;;;1.40;1.40;;;7.50;99.90;;;;;;5013327;28;20187;-79
2020/12/12 07:00:07;;;;;;;1.10;1.00;;;7.50;99.90;;;;;;5013086;28;20685;-79
2020/12/12 07:02:33;;;;;;;1.17;0.97;;;7.50;99.90;;;;;;5013722;28;20178;-79
2020/12/12 07:05:17;;;;;;;1.67;1.57;;;7.50;99.90;;;;;;5014911;28;20168;-79
2020/12/12 07:07:44;;;;;;;1.70;1.27;;;7.50;99.90;;;;;;5014790;28;20198;-79
2020/12/12 07:10:10;;;;;;;0.67;0.67;;;7.50;99.90;;;;;;5014226;28;20196;-81
2020/12/12 07:12:37;;;;;;;0.57;0.57;;;7.50;99.90;;;;;;5012403;28;20289;-79
2020/12/12 07:15:04;;;;;;;2.10;1.93;;;7.50;99.90;;;;;;5012304;28;20648;-79
2020/12/12 07:17:30;;;;;;;1.50;1.40;;;7.50;99.90;;;;;;5012472;28;20188;-79
2020/12/12 07:19:57;;;;;;;1.27;1.27;;;7.40;99.90;;;;;;5012099;28;20226;-79
2020/12/12 08:00:26;;;;;;;1.93;1.13;;;7.70;99.90;;;;;;5053855;28;20199;-82
2020/12/12 08:02:58;;;;;;;1.10;1.10;;;7.80;99.90;;;;;;5056714;28;20649;-80
2020/12/12 08:05:24;;;;;;;0.47;0.47;;;7.70;99.90;;;;;;5038819;28;20692;-80
2020/12/12 08:07:50;;;;;;;0.77;0.77;;;7.70;99.90;;;;;;5038543;28;20175;-87
2020/12/12 08:10:16;;;;;;;0.47;0.47;;;7.70;99.90;;;;;;5038609;28;20564;-79
2020/12/12 08:12:43;;;;;;;1.93;0.47;;;7.70;99.90;;;;;;5038625;28;20180;-79
2020/12/12 08:15:26;;;;;;;1.27;1.17;;;7.70;99.90;;;;;;5038772;28;20261;-79
2020/12/12 08:17:51;;;;;;;1.43;1.37;;;7.60;99.90;;;;;;5038403;28;20194;-79
2020/12/12 08:20:24;;;;;;;1.13;1.00;;;7.60;99.90;;;;;;5052660;28;20256;-80
2020/12/12 08:22:51;;;;;;;1.23;1.23;;;7.60;99.90;;;;;;5024851;28;20187;-79
2020/12/12 08:25:18;;;;;;;1.50;0.60;;;7.60;99.90;;;;;;5038193;28;20704;-79
2020/12/12 08:27:44;;;;;;;2.13;2.03;;;7.50;99.90;;;;;;5036624;28;20213;-80
2020/12/12 08:30:10;;;;;;;1.57;1.47;;;7.60;99.90;;;;;;5020899;28;20562;-81
2020/12/12 08:32:41;;;;;;;1.63;1.57;;;7.60;99.90;;;;;;5036352;28;20176;-79
2020/12/12 08:35:13;;;;;;;2.03;1.83;;;7.60;99.90;;;;;;5036026;28;20165;-79
2020/12/12 08:37:39;;;;;;;0.73;0.60;;;7.70;99.90;;;;;;5035840;28;20684;-79
2020/12/12 08:40:10;;;;;;;2.10;1.90;;;7.70;99.90;;;;;;5035578;28;20195;-80
2020/12/12 08:42:36;;;;;;;1.43;1.33;;;7.70;99.90;;;;;;5018255;28;20269;-79
2020/12/12 08:45:15;;;;;;;0.50;0.50;;;7.80;99.90;;;;;;5037568;28;20180;-79
2020/12/12 08:47:41;;;;;;;1.10;0.93;;;7.80;99.90;;;;;;5017871;28;20179;-79
2020/12/12 08:50:07;;;;;;;0.57;0.57;;;7.80;99.90;;;;;;5035488;28;20529;-79
2020/12/12 08:52:32;;;;;;;1.37;1.37;;;7.80;99.90;;;;;;5035485;28;20179;-80
2020/12/12 08:55:03;;;;;;;1.70;1.13;;;7.80;99.90;;;;;;5017660;28;20182;-80
2020/12/12 08:57:28;;;;;;;1.10;1.10;;;7.80;99.90;;;;;;5037794;28;20191;-80
2020/12/12 08:59:58;;;;;;;1.30;1.30;;;7.80;99.90;;;;;;5055626;28;20687;-81
2020/12/12 09:02:24;;;;;;;1.60;1.50;;;7.80;99.90;;;;;;5037855;28;20182;-81
2020/12/12 09:05:07;;;;;;;1.30;1.20;;;7.70;99.90;;;;;;5037261;28;20178;-80
2020/12/12 09:07:32;;;;;;;1.30;1.20;;;7.70;99.90;;;;;;5054214;28;20261;-80
2020/12/12 09:10:15;;;;;;;12.83;1.07;;;7.70;99.90;;;;;;5034136;28;20329;-81
2020/12/12 09:12:49;;;;;;;0.90;0.87;;;7.80;99.90;;;;;;5035216;28;20172;-81
2020/12/12 09:15:15;;;;;;;0.73;0.73;;;7.80;99.90;;;;;;5035264;28;20647;-81
2020/12/12 09:17:41;;;;;;;0.67;0.67;;;7.80;99.90;;;;;;5035116;28;20167;-81
2020/12/12 09:20:08;;;;;;;0.93;0.93;;;7.80;99.90;;;;;;5033700;28;20212;-81
2020/12/12 09:22:34;;;;;;;0.97;0.67;;;7.90;99.90;;;;;;5017262;28;20540;-79
2020/12/12 09:25:01;;;;;;;1.90;1.53;;;7.90;99.90;;;;;;5028797;28;20171;-79
2020/12/12 09:27:27;;;;;;;0.50;0.50;;;7.90;99.90;;;;;;5054952;28;20175;-79
2020/12/12 09:29:52;;;;;;;1.13;1.13;;;7.90;99.90;;;;;;5054528;28;20233;-79
2020/12/12 09:32:18;;;;;;;1.43;1.07;;;7.90;99.90;;;;;;5055178;28;20167;-79
2020/12/12 09:34:43;;;;;;;1.73;0.90;;;7.90;99.90;;;;;;5036676;28;20173;-79
2020/12/12 09:37:09;;;;;;;0.20;0.20;;;7.90;99.90;;;;;;5037283;28;20167;-79
2020/12/12 09:39:35;;;;;;;1.50;1.40;;;7.90;99.90;;;;;;5036528;28;20195;-79
2020/12/12 09:42:00;;;;;;;1.20;1.20;;;7.90;99.90;;;;;;5036590;28;20288;-79
2020/12/12 09:44:27;;;;;;;1.77;1.67;;;8.00;99.90;;;;;;5054710;28;20207;-79
2020/12/12 09:46:53;;;;;;;2.00;1.47;;;8.00;99.90;;;;;;5054420;28;20172;-81
2020/12/12 09:49:19;;;;;;;0.80;0.80;;;8.00;99.90;;;;;;5033226;28;20199;-80
2020/12/12 09:51:46;;;;;;;0.73;0.73;;;8.00;99.90;;;;;;5039296;28;20213;-81
2020/12/12 09:54:11;;;;;;;1.30;1.13;;;8.00;99.90;;;;;;5054266;28;20171;-81
2020/12/12 09:56:37;;;;;;;0.63;0.50;;;8.00;99.90;;;;;;5032962;28;20759;-81
2020/12/12 09:59:03;;;;;;;2.30;1.67;;;8.00;99.90;;;;;;5026553;28;20209;-80
2020/12/12 10:01:29;;;;;;;0.83;0.83;;;8.00;99.90;;;;;;5016375;28;20663;-82
2020/12/12 10:03:54;;;;;;;2.40;2.13;;;8.10;99.90;;;;;;5033958;28;20246;-81
2020/12/12 10:06:20;;;;;;;0.83;0.83;;;8.10;99.90;;;;;;5035845;28;20187;-79
2020/12/12 10:08:45;;;;;;;0.80;0.80;;;8.10;99.90;;;;;;5035882;28;20195;-79
2020/12/12 10:11:11;;;;;;;0.67;0.43;;;8.10;99.90;;;;;;5055131;28;20171;-82
2020/12/12 10:13:36;;;;;;;0.37;0.37;;;8.20;99.90;;;;;;5046803;28;20245;-79
2020/12/12 10:16:03;;;;;;;1.03;1.03;;;8.10;99.90;;;;;;5036024;28;20178;-79
2020/12/12 10:18:28;;;;;;;0.50;0.50;;;8.20;99.90;;;;;;5032408;28;20186;-79
2020/12/12 10:20:54;;;;;;;1.13;0.90;;;8.20;99.90;;;;;;5016159;28;20295;-79
2020/12/12 10:23:20;;;;;;;1.30;1.30;;;8.20;99.90;;;;;;5032672;28;20175;-79
2020/12/12 10:25:45;;;;;;;0.30;0.30;;;8.20;99.90;;;;;;5036020;28;20179;-79
2020/12/12 10:28:11;;;;;;;1.23;1.13;;;8.20;99.90;;;;;;5035234;28;20183;-79
2020/12/12 10:30:37;;;;;;;0.93;0.93;;;8.20;99.90;;;;;;5035870;28;20206;-80
2020/12/12 10:33:03;;;;;;;1.40;1.03;;;8.10;99.90;;;;;;5053605;28;20171;-80
2020/12/12 10:35:30;;;;;;;0.83;0.63;;;8.10;99.90;;;;;;5053475;28;20171;-80
2020/12/12 10:37:56;;;;;;;1.47;1.07;;;8.10;99.90;;;;;;5054457;28;20253;-79
2020/12/12 10:42:51;;;;;;;5.10;1.30;;;8.20;99.90;;;;;;5054294;28;20172;-78
2020/12/12 10:45:17;;;;;;;1.73;1.63;;;8.20;99.90;;;;;;5054655;28;20341;-77
2020/12/12 10:47:42;;;;;;;1.47;1.27;;;8.20;99.90;;;;;;5032465;28;20183;-77
2020/12/12 10:50:08;;;;;;;1.37;1.27;;;8.20;99.90;;;;;;5033501;28;20217;-80
2020/12/12 10:52:34;;;;;;;1.07;0.97;;;8.30;99.90;;;;;;5033462;28;20180;-79
2020/12/12 10:55:01;;;;;;;1.70;1.60;;;8.30;99.90;;;;;;5033579;28;20178;-80
2020/12/12 10:57:27;;;;;;;0.50;0.50;;;8.30;99.90;;;;;;5036959;28;20187;-79
2020/12/12 10:59:52;;;;;;;1.47;1.37;;;8.30;99.90;;;;;;5033139;28;20246;-80
2020/12/12 11:02:18;;;;;;;1.50;1.10;;;8.30;99.90;;;;;;5033529;28;20168;-79
2020/12/12 11:04:43;;;;;;;1.07;1.03;;;8.30;99.90;;;;;;5032739;28;20179;-78
2020/12/12 11:07:11;;;;;;;0.63;0.50;;;8.30;99.90;;;;;;5034374;28;20176;-77
2020/12/12 11:09:38;;;;;;;1.23;0.70;;;8.30;99.90;;;;;;5032641;28;20329;-78
2020/12/12 11:12:04;;;;;;;1.10;1.03;;;8.30;99.90;;;;;;5018544;28;20204;-79
2020/12/12 11:14:32;;;;;;;0.73;0.73;;;8.30;99.90;;;;;;5034190;28;20286;-79
2020/12/12 11:16:59;;;;;;;0.60;0.60;;;8.30;99.90;;;;;;5047408;28;20313;-80
2020/12/12 11:19:24;;;;;;;1.27;1.10;;;8.30;99.90;;;;;;5015218;28;20739;-80
2020/12/12 11:21:54;;;;;;;1.13;1.00;;;8.30;99.90;;;;;;5033669;28;20283;-82
2020/12/12 11:24:21;;;;;;;0.27;0.27;;;8.30;99.90;;;;;;5016115;28;20170;-79
2020/12/12 11:26:47;;;;;;;0.57;0.57;;;8.30;99.90;;;;;;5033651;28;20302;-80
2020/12/12 11:29:16;;;;;;;0.87;0.87;;;8.30;99.90;;;;;;5033830;28;20187;-81
2020/12/12 11:31:46;;;;;;;0.60;0.60;;;8.20;99.90;;;;;;5033117;28;20168;-81
2020/12/12 11:34:19;;;;;;;1.00;1.00;;;8.20;99.90;;;;;;5033320;28;20199;-81
2020/12/12 11:37:04;;;;;;;0.90;0.73;;;8.20;99.90;;;;;;5036348;28;20159;-80
2020/12/12 11:40:02;;;;;;;1.60;1.03;;;8.30;99.90;;;;;;5037555;28;20187;-79
2020/12/12 11:47:39;;;;;;;1.43;1.37;;;8.30;99.90;;;;;;5037523;28;20183;-80
2020/12/12 11:50:05;;;;;;;0.67;0.67;;;8.30;99.90;;;;;;5035517;28;20656;-81
2020/12/12 11:52:38;;;;;;;1.30;1.20;;;8.30;99.90;;;;;;5036733;28;20279;-81
2020/12/12 11:55:04;;;;;;;0.33;0.33;;;8.30;99.90;;;;;;5019050;28;20623;-81
2020/12/12 11:57:31;;;;;;;0.97;0.93;;;8.40;99.90;;;;;;5035376;28;20178;-82
2020/12/12 11:59:57;;;;;;;0.90;0.90;;;8.40;99.90;;;;;;5043215;28;20187;-81
2020/12/12 12:02:23;;;;;;;1.40;1.30;;;8.40;99.90;;;;;;5038395;28;20221;-81
2020/12/12 12:04:48;;;;;;;1.80;0.67;;;8.40;99.90;;;;;;5056392;28;20164;-81
2020/12/12 12:07:14;;;;;;;1.50;1.30;;;8.40;99.90;;;;;;5056341;28;20160;-80
2020/12/12 12:09:43;;;;;;;0.50;0.50;;;8.50;99.90;;;;;;5038333;28;20197;-80
2020/12/12 12:12:09;;;;;;;1.50;1.40;;;8.50;99.90;;;;;;5038556;28;20632;-82
2020/12/12 12:14:34;;;;;;;0.90;0.87;;;8.50;99.90;;;;;;5056301;28;20179;-81
2020/12/12 12:17:00;;;;;;;0.90;0.77;;;8.60;99.90;;;;;;5056083;28;20172;-81
2020/12/12 12:19:26;;;;;;;1.07;1.07;;;8.60;99.90;;;;;;5055945;28;20726;-89
2020/12/12 12:21:52;;;;;;;1.23;1.13;;;8.60;99.90;;;;;;5038226;28;20206;-79
2020/12/12 12:24:18;;;;;;;0.67;0.67;;;8.60;99.90;;;;;;5038954;28;20202;-82
2020/12/12 12:26:48;;;;;;;0.73;0.60;;;8.60;99.90;;;;;;5056166;28;20160;-85
2020/12/12 12:29:13;;;;;;;0.30;0.30;;;8.60;99.90;;;;;;5038874;28;20199;-81
2020/12/12 12:31:41;;;;;;;0.30;0.30;;;8.70;99.90;;;;;;5038188;28;20254;-81
2020/12/12 12:34:07;;;;;;;0.37;0.37;;;8.70;99.90;;;;;;5056121;28;20164;-82
2020/12/12 12:36:34;;;;;;;0.60;0.60;;;8.80;99.90;;;;;;5037894;28;20170;-82
2020/12/12 12:39:00;;;;;;;0.77;0.77;;;8.80;99.90;;;;;;5055820;28;20184;-82
2020/12/12 12:41:28;;;;;;;1.10;0.97;;;8.90;99.90;;;;;;5037883;28;20197;-81
2020/12/12 12:44:00;;;;;;;0.63;0.63;;;8.90;99.90;;;;;;5055815;28;20155;-81
2020/12/12 12:46:27;;;;;;;0.50;0.50;;;8.90;99.90;;;;;;5055344;28;20148;-82
2020/12/12 12:48:53;;;;;;;1.40;0.93;;;8.90;99.90;;;;;;5037719;28;20195;-81
2020/12/12 12:51:18;;;;;;;0.40;0.40;;;9.00;99.90;;;;;;5055662;28;20175;-81
2020/12/12 12:53:44;;;;;;;0.50;0.43;;;8.90;99.90;;;;;;5038097;28;20536;-82
2020/12/12 12:56:10;;;;;;;0.80;0.70;;;9.00;99.90;;;;;;5055420;28;20183;-81
2020/12/12 12:58:36;;;;;;;1.90;1.53;;;8.90;99.90;;;;;;5037403;28;20175;-82
2020/12/12 13:01:01;;;;;;;3.67;2.27;;;8.90;99.90;;;;;;5037483;28;20199;-81
2020/12/12 13:03:27;;;;;;;0.80;0.70;;;8.90;99.90;;;;;;5037860;28;20159;-81
2020/12/12 13:05:52;;;;;;;0.87;0.57;;;8.90;99.90;;;;;;5037877;28;20167;-80
2020/12/12 13:08:18;;;;;;;0.50;0.30;;;8.90;99.90;;;;;;5055861;28;20167;-82
2020/12/12 13:10:44;;;;;;;1.27;1.17;;;9.00;99.90;;;;;;5037882;28;20191;-81
2020/12/12 13:13:12;;;;;;;0.70;0.67;;;9.00;99.90;;;;;;5037602;28;20167;-82
2020/12/12 13:15:38;;;;;;;0.57;0.53;;;9.00;99.90;;;;;;5055487;28;20168;-81
2020/12/12 13:18:08;;;;;;;1.57;0.90;;;9.00;99.90;;;;;;5056500;28;20175;-79
2020/12/12 13:20:45;;;;;;;0.87;0.87;;;9.00;99.90;;;;;;5038078;28;20215;-81
2020/12/12 13:23:11;;;;;;;1.37;1.27;;;9.00;99.90;;;;;;5037032;28;20242;-82
2020/12/12 13:25:36;;;;;;;1.80;1.63;;;9.00;99.90;;;;;;5036964;28;20191;-82
2020/12/12 13:31:05;;;;;;;0.67;0.67;;;9.00;99.90;;;;;;5054766;28;20198;-81
2020/12/12 13:33:32;;;;;;;0.63;0.63;;;9.10;99.90;;;;;;5037014;28;20163;-82
2020/12/12 13:35:58;;;;;;;0.87;0.80;;;9.10;99.90;;;;;;5055395;28;20171;-81
2020/12/12 13:38:24;;;;;;;0.70;0.70;;;9.00;99.90;;;;;;5036946;28;20172;-82
2020/12/12 13:40:50;;;;;;;0.90;0.77;;;9.10;99.90;;;;;;5054461;28;20195;-80
2020/12/12 13:43:17;;;;;;;0.70;0.67;;;9.10;99.90;;;;;;5054494;28;20167;-80
2020/12/12 13:45:42;;;;;;;0.53;0.53;;;9.00;99.90;;;;;;5054676;28;20199;-79
2020/12/12 13:48:08;;;;;;;0.80;0.80;;;9.10;99.90;;;;;;5036492;28;20167;-80